Time;durP1;ratioP1;P1;durP2;ratioP2;P2;SDS_P1;SDS_P2;PMS_P1;PMS_P2;Temp;Humidity;BMP_temperature;BMP_pressure;BME280_temperature;BME280_humidity;BME280_pressure;Samples;Min_cycle;Max_cycle;Signal;HPM_P1;HPM_P2
2023/09/19 00:01:07;;;;;;;22.50;12.20;;;;;;;10.92;100.00;101117.27;105552;1257;66905;-64
2023/09/19 00:03:38;;;;;;;21.00;12.70;;;;;;;10.94;100.00;101121.10;105652;1257;72711;-66
2023/09/19 00:06:07;;;;;;;19.90;13.10;;;;;;;10.94;100.00;101119.34;105295;1253;60245;-65
2023/09/19 00:08:35;;;;;;;24.40;12.60;;;;;;;10.90;100.00;101119.26;105420;1253;60082;-61
2023/09/19 00:11:03;;;;;;;16.80;11.90;;;;;;;10.83;100.00;101119.13;105409;1257;73157;-62
2023/09/19 00:13:33;;;;;;;18.60;12.70;;;;;;;10.76;100.00;101116.75;105276;1258;66887;-67
2023/09/19 00:16:01;;;;;;;21.40;11.30;;;;;;;10.71;100.00;101115.38;105385;1253;72752;-62
2023/09/19 00:18:32;;;;;;;16.70;10.70;;;;;;;10.67;100.00;101114.72;105187;1258;60742;-64
2023/09/19 00:21:00;;;;;;;16.90;12.00;;;;;;;10.67;100.00;101118.88;105319;1253;59917;-62
2023/09/19 00:23:28;;;;;;;12.80;9.70;;;;;;;10.70;100.00;101126.03;105200;1253;73057;-65
2023/09/19 00:25:58;;;;;;;10.60;8.80;;;;;;;10.75;100.00;101124.31;105517;1253;65565;-62
2023/09/19 00:28:30;;;;;;;9.90;8.20;;;;;;;10.80;100.00;101129.16;105286;1259;72662;-65
2023/09/19 00:31:01;;;;;;;8.30;7.10;;;;;;;10.84;100.00;101129.10;105267;1258;62417;-64
2023/09/19 00:33:29;;;;;;;;;;;;;;;10.86;100.00;101133.56;105946;1253;60708;-67
2023/09/19 00:35:57;;;;;;;8.30;6.50;;;;;;;10.89;100.00;101132.95;105494;1253;71922;-63
2023/09/19 00:38:26;;;;;;;9.90;7.00;;;;;;;10.90;100.00;101133.13;105738;1253;67070;-65
2023/09/19 00:40:56;;;;;;;10.70;6.90;;;;;;;10.90;100.00;101127.46;105626;1259;71997;-67
2023/09/19 00:43:27;;;;;;;7.60;6.20;;;;;;;10.87;100.00;101128.09;105596;1253;61693;-62
2023/09/19 00:45:56;;;;;;;8.70;6.40;;;;;;;10.85;100.00;101128.28;105515;1253;60117;-63
2023/09/19 00:48:24;;;;;;;8.50;6.80;;;;;;;10.84;100.00;101125.64;105915;1253;73089;-64
2023/09/19 00:50:53;;;;;;;9.70;7.40;;;;;;;10.81;100.00;101123.77;107146;1258;65679;-65
2023/09/19 00:53:22;;;;;;;8.20;6.70;;;;;;;10.76;100.00;101117.27;105552;1253;72532;-63
2023/09/19 00:55:51;;;;;;;9.90;7.30;;;;;;;10.71;100.00;101115.14;105603;1259;60395;-64
2023/09/19 00:58:19;;;;;;;10.40;7.30;;;;;;;10.69;100.00;101114.23;106657;1258;59625;-64
2023/09/19 01:00:48;;;;;;;14.80;10.20;;;;;;;10.67;100.00;101114.63;105738;1254;74363;-63
2023/09/19 01:03:18;;;;;;;16.90;11.70;;;;;;;10.66;100.00;101114.05;105760;1258;67828;-62
2023/09/19 01:05:46;;;;;;;20.80;13.10;;;;;;;10.64;100.00;101112.10;105678;1253;71414;-62
2023/09/19 01:08:14;;;;;;;20.10;14.00;;;;;;;10.63;100.00;101109.11;105436;1259;61770;-64
2023/09/19 01:10:55;;;;;;;16.80;11.60;;;;;;;10.61;100.00;101116.09;105253;1258;59635;-61
2023/09/19 01:13:31;;;;;;;21.50;13.60;;;;;;;10.59;100.00;101116.52;105374;1253;73629;-62
2023/09/19 01:16:11;;;;;;;19.50;12.50;;;;;;;10.56;100.00;101120.24;105814;1258;65727;-63
2023/09/19 01:18:55;;;;;;;16.50;12.00;;;;;;;10.54;100.00;101122.89;105770;1258;72724;-62
2023/09/19 01:21:30;;;;;;;16.60;12.00;;;;;;;10.51;100.00;101123.80;105575;1253;60713;-63
2023/09/19 01:24:39;;;;;;;17.10;11.80;;;;;;;10.46;100.00;101127.94;105540;1253;60083;-64
2023/09/19 01:27:07;;;;;;;18.00;12.40;;;;;;;10.41;100.00;101131.02;105613;1257;74387;-65
2023/09/19 01:29:39;;;;;;;16.60;12.50;;;;;;;10.34;100.00;101131.91;105795;1253;65337;-63
2023/09/19 01:32:09;;;;;;;21.40;12.70;;;;;;;10.28;100.00;101135.00;105699;1259;71324;-62
2023/09/19 01:35:03;;;;;;;18.40;12.90;;;;;;;10.24;100.00;101132.20;105848;1259;60644;-63
2023/09/19 01:37:31;;;;;;;15.00;10.80;;;;;;;10.23;100.00;101132.01;105734;1257;60277;-63
2023/09/19 01:40:07;;;;;;;16.70;10.80;;;;;;;10.21;100.00;101131.81;105802;1253;72656;-62
2023/09/19 01:42:49;;;;;;;14.80;11.30;;;;;;;10.20;100.00;101131.11;105400;1253;68280;-62
2023/09/19 01:45:22;;;;;;;13.90;11.30;;;;;;;10.21;100.00;101133.64;105575;1258;72639;-64
2023/09/19 01:47:57;;;;;;;14.20;10.70;;;;;;;10.20;100.00;101130.02;105735;1258;60470;-62
2023/09/19 01:50:41;;;;;;;14.10;10.90;;;;;;;10.19;100.00;101132.59;105452;1257;60515;-60
2023/09/19 01:53:30;;;;;;;15.40;11.10;;;;;;;10.16;100.00;101131.84;105525;1254;73331;-61
2023/09/19 01:56:01;;;;;;;14.80;10.40;;;;;;;10.14;100.00;101132.94;105354;1261;65703;-61
2023/09/19 02:06:15;;;;;;;14.60;10.60;;;;;;;10.10;100.00;101132.17;102164;1298;601193;-61
2023/09/19 02:08:44;;;;;;;15.80;10.50;;;;;;;10.06;100.00;101131.06;105323;1257;60457;-60
2023/09/19 02:11:13;;;;;;;16.70;10.50;;;;;;;10.04;100.00;101128.41;105356;1254;60071;-61
2023/09/19 02:13:40;;;;;;;14.90;10.70;;;;;;;10.03;100.00;101130.10;105317;1256;72284;-61
2023/09/19 02:16:10;;;;;;;16.00;11.30;;;;;;;10.04;100.00;101133.00;105565;1262;66533;-63
2023/09/19 02:18:39;;;;;;;17.40;12.20;;;;;;;10.06;100.00;101134.96;105229;1257;72717;-62
2023/09/19 02:21:07;;;;;;;15.50;11.10;;;;;;;10.05;100.00;101129.57;105652;1254;60858;-62
2023/09/19 02:23:34;;;;;;;14.70;10.90;;;;;;;10.04;100.00;101133.14;105634;1257;60066;-61
2023/09/19 02:26:03;;;;;;;12.10;10.00;;;;;;;10.01;100.00;101134.14;105630;1257;72293;-64
2023/09/19 02:28:32;;;;;;;14.90;10.10;;;;;;;9.96;100.00;101133.89;105667;1257;66902;-61
2023/09/19 02:30:59;;;;;;;15.90;10.80;;;;;;;9.90;100.00;101134.75;105752;1257;71435;-61
2023/09/19 02:33:32;;;;;;;14.70;10.40;;;;;;;9.83;100.00;101133.85;105525;1252;59862;-62
2023/09/19 02:36:00;;;;;;;14.50;9.70;;;;;;;9.77;100.00;101134.14;106465;1253;60372;-63
2023/09/19 02:38:29;;;;;;;13.80;9.30;;;;;;;9.69;100.00;101137.35;105565;1257;73132;-61
2023/09/19 02:40:56;;;;;;;13.00;9.80;;;;;;;9.64;100.00;101133.04;105676;1259;67096;-62
2023/09/19 02:43:25;;;;;;;16.00;10.80;;;;;;;9.59;100.00;101131.67;105688;1259;71502;-62
2023/09/19 02:45:54;;;;;;;15.10;11.20;;;;;;;9.55;100.00;101137.09;105903;1254;60427;-63
2023/09/19 02:48:25;;;;;;;16.60;10.90;;;;;;;9.52;100.00;101136.36;105569;1260;59186;-61
2023/09/19 02:50:53;;;;;;;19.00;10.90;;;;;;;9.49;100.00;101134.88;105629;1259;71856;-63
2023/09/19 02:53:22;;;;;;;16.10;10.40;;;;;;;9.50;100.00;101137.70;105875;1259;66071;-63
2023/09/19 02:55:51;;;;;;;15.20;11.30;;;;;;;9.49;100.00;101137.25;105552;1256;71416;-62
2023/09/19 02:58:19;;;;;;;16.90;11.60;;;;;;;9.48;100.00;101137.73;105622;1254;60793;-62
2023/09/19 03:00:48;;;;;;;12.70;10.30;;;;;;;9.46;100.00;101142.30;105604;1254;60067;-62
2023/09/19 03:03:17;;;;;;;15.90;10.90;;;;;;;9.40;100.00;101144.67;105733;1260;72309;-64
2023/09/19 03:05:47;;;;;;;16.80;10.20;;;;;;;9.33;100.00;101145.52;105580;1259;65883;-60
2023/09/19 03:08:16;;;;;;;15.20;10.20;;;;;;;9.25;100.00;101145.77;105368;1254;72718;-62
2023/09/19 03:10:50;;;;;;;16.30;10.10;;;;;;;9.19;100.00;101148.48;105550;1256;59743;-62
2023/09/19 03:13:18;;;;;;;12.90;9.80;;;;;;;9.14;100.00;101147.78;109064;1254;60701;-61
2023/09/19 03:15:47;;;;;;;16.50;10.50;;;;;;;9.09;100.00;101147.77;105986;1253;73046;-62
2023/09/19 03:18:16;;;;;;;21.30;11.90;;;;;;;9.06;100.00;101148.72;105652;1253;66908;-62
2023/09/19 03:20:55;;;;;;;15.80;10.50;;;;;;;9.06;100.00;101149.92;105656;1264;72696;-62
2023/09/19 03:23:23;;;;;;;18.50;10.50;;;;;;;9.15;100.00;101149.52;105562;1260;61050;-62
2023/09/19 03:25:52;;;;;;;17.90;10.40;;;;;;;9.33;100.00;101149.36;105617;1257;61097;-62
2023/09/19 03:28:21;;;;;;;15.90;11.00;;;;;;;9.60;100.00;101147.88;105603;1254;72978;-62
2023/09/19 03:31:03;;;;;;;14.90;10.40;;;;;;;9.97;100.00;101148.13;105654;1258;66964;-62
2023/09/19 03:33:32;;;;;;;14.40;10.20;;;;;;;10.45;100.00;101153.05;105289;1257;71525;-62
2023/09/19 03:36:04;;;;;;;15.90;10.50;;;;;;;10.98;100.00;101159.30;105587;1254;61732;-62
2023/09/19 03:38:34;;;;;;;13.80;11.30;;;;;;;11.57;100.00;101160.86;105532;1255;62543;-63
2023/09/19 03:41:02;;;;;;;13.30;9.60;;;;;;;12.22;100.00;101158.86;105766;1254;73097;-65
2023/09/19 03:43:32;;;;;;;12.30;10.20;;;;;;;12.90;100.00;101160.01;105582;1254;65732;-62
2023/09/19 03:46:04;;;;;;;15.00;10.30;;;;;;;13.62;100.00;101158.05;105578;1254;71553;-63
2023/09/19 03:48:33;;;;;;;13.60;9.40;;;;;;;14.37;100.00;101161.34;105940;1259;60464;-63
2023/09/19 03:51:02;;;;;;;13.10;9.50;;;;;;;15.01;100.00;101159.92;105644;1253;60061;-61
2023/09/19 03:53:30;;;;;;;14.50;9.10;;;;;;;15.61;100.00;101158.56;105592;1257;73127;-62
2023/09/19 03:55:59;;;;;;;11.20;8.70;;;;;;;16.27;100.00;101153.06;105681;1257;66915;-61
2023/09/19 03:58:29;;;;;;;13.40;9.90;;;;;;;16.96;100.00;101145.92;105597;1256;71626;-64
2023/09/19 04:00:58;;;;;;;12.80;9.00;;;;;;;17.61;100.00;101140.80;105852;1254;60262;-65
2023/09/19 04:03:34;;;;;;;10.80;9.30;;;;;;;18.26;100.00;101125.56;105618;1253;59628;-64
2023/09/19 04:06:03;;;;;;;12.80;9.10;;;;;;;18.97;100.00;101104.86;105699;1253;72271;-63
2023/09/19 04:08:30;;;;;;;11.60;8.40;;;;;;;19.59;100.00;101080.13;105702;1253;66990;-63
2023/09/19 04:10:58;;;;;;;10.00;8.10;;;;;;;20.12;100.00;101053.17;105753;1260;72794;-63
2023/09/19 04:13:26;;;;;;;10.60;8.30;;;;;;;20.60;100.00;101033.16;105270;1257;60552;-63
2023/09/19 04:15:54;;;;;;;12.00;9.30;;;;;;;21.06;100.00;101014.70;105302;1258;59667;-61
2023/09/19 04:18:23;;;;;;;10.30;8.10;;;;;;;21.56;100.00;101008.77;105584;1254;71699;-65
2023/09/19 04:20:52;;;;;;;13.10;9.30;;;;;;;22.10;100.00;101003.38;105830;1254;67049;-65
2023/09/19 04:23:20;;;;;;;13.00;9.00;;;;;;;22.57;100.00;100999.48;105676;1258;73208;-63
2023/09/19 04:25:48;;;;;;;10.00;8.80;;;;;;;23.01;100.00;100995.23;105809;1257;59747;-63
2023/09/19 04:28:16;;;;;;;10.20;7.90;;;;;;;23.39;100.00;100996.85;105701;1258;59657;-63
2023/09/19 04:30:44;;;;;;;10.20;8.00;;;;;;;23.69;100.00;100996.42;105622;1253;72172;-62
2023/09/19 04:33:14;;;;;;;11.30;8.50;;;;;;;23.85;100.00;100995.46;105833;1257;66948;-62
2023/09/19 04:35:45;;;;;;;12.20;7.90;;;;;;;24.04;100.00;100995.35;105750;1253;72685;-63
2023/09/19 04:38:14;;;;;;;10.90;9.10;;;;;;;24.35;100.00;100993.45;105674;1258;59733;-64
2023/09/19 04:40:42;;;;;;;9.10;8.20;;;;;;;24.76;100.00;100993.80;105905;1257;59513;-64
2023/09/19 04:43:10;;;;;;;12.90;8.70;;;;;;;25.16;100.00;100994.58;105765;1254;71812;-62
2023/09/19 04:45:38;;;;;;;10.60;9.50;;;;;;;25.45;100.00;100996.05;105463;1258;66956;-63
2023/09/19 04:48:06;;;;;;;9.80;8.60;;;;;;;25.74;100.00;100998.48;105794;1254;72663;-63
2023/09/19 04:50:34;;;;;;;10.40;8.50;;;;;;;26.05;97.62;100998.27;106157;1258;60200;-65
2023/09/19 04:53:03;;;;;;;11.50;9.10;;;;;;;26.24;90.74;100999.73;105730;1257;59542;-65
2023/09/19 04:55:32;;;;;;;10.60;8.40;;;;;;;26.51;85.75;100999.33;105722;1253;71850;-64
2023/09/19 04:58:00;;;;;;;11.50;8.80;;;;;;;26.75;83.45;101000.55;105829;1254;65630;-63
2023/09/19 05:00:30;;;;;;;12.60;9.50;;;;;;;26.90;78.98;101002.22;105811;1253;72662;-62
2023/09/19 05:02:58;;;;;;;12.40;9.70;;;;;;;26.94;75.58;101003.64;105825;1253;60254;-64
2023/09/19 05:05:26;;;;;;;10.10;9.00;;;;;;;26.71;74.94;101003.57;105669;1253;59802;-62
2023/09/19 05:07:55;;;;;;;10.70;9.30;;;;;;;26.21;77.16;101002.84;105642;1258;73101;-62
2023/09/19 05:10:23;;;;;;;12.00;8.90;;;;;;;25.65;83.31;101000.09;105598;1254;65766;-65
2023/09/19 05:12:55;;;;;;;12.90;10.40;;;;;;;25.00;88.15;101001.34;105420;1254;71785;-66
2023/09/19 05:15:22;;;;;;;11.20;9.90;;;;;;;24.20;95.89;101005.64;105643;1258;60137;-65
2023/09/19 05:17:51;;;;;;;11.40;9.70;;;;;;;23.53;100.00;101005.80;105671;1254;59633;-63
2023/09/19 05:20:37;;;;;;;19.50;11.20;;;;;;;23.01;100.00;101013.80;105597;1253;71747;-63
2023/09/19 05:23:12;;;;;;;11.80;10.00;;;;;;;22.58;100.00;101011.83;105667;1259;67250;-63
2023/09/19 05:25:40;;;;;;;13.90;10.00;;;;;;;22.43;100.00;101013.25;105606;1257;70905;-64
2023/09/19 05:28:11;;;;;;;12.70;9.70;;;;;;;22.35;100.00;101012.83;105790;1257;59495;-64
2023/09/19 05:30:40;;;;;;;18.80;13.90;;;;;;;22.26;100.00;101012.80;105788;1257;60020;-64
2023/09/19 05:33:08;;;;;;;17.10;11.60;;;;;;;22.09;100.00;101011.80;105613;1253;73074;-63
2023/09/19 05:35:39;;;;;;;16.70;12.90;;;;;;;21.85;100.00;101015.60;105676;1257;66208;-63
2023/09/19 05:38:08;;;;;;;14.70;12.00;;;;;;;21.74;100.00;101013.06;105516;1253;72712;-65
2023/09/19 05:40:38;;;;;;;15.40;13.70;;;;;;;21.67;100.00;101014.48;105727;1253;59596;-64
2023/09/19 05:43:06;;;;;;;15.80;11.70;;;;;;;21.54;100.00;101014.25;105741;1257;59609;-62
2023/09/19 05:45:34;;;;;;;12.10;10.60;;;;;;;21.43;100.00;101012.93;105572;1256;73321;-64
2023/09/19 05:48:11;;;;;;;19.30;11.20;;;;;;;21.41;100.00;101014.58;105760;1253;66686;-65
2023/09/19 05:50:39;;;;;;;14.50;11.40;;;;;;;21.42;100.00;101012.42;105763;1257;72871;-66
2023/09/19 05:53:08;;;;;;;13.40;11.10;;;;;;;21.44;100.00;101013.90;105662;1257;60428;-62
2023/09/19 05:55:35;;;;;;;13.40;10.40;;;;;;;21.45;100.00;101013.49;105819;1253;60819;-66
2023/09/19 05:58:03;;;;;;;13.60;10.20;;;;;;;21.61;100.00;101016.22;105427;1257;71624;-62
2023/09/19 06:00:32;;;;;;;15.20;10.50;;;;;;;21.92;100.00;101017.77;105950;1258;65584;-64
2023/09/19 06:02:59;;;;;;;12.20;10.90;;;;;;;22.17;100.00;101015.98;105598;1257;71446;-63
2023/09/19 06:05:27;;;;;;;14.40;10.40;;;;;;;22.38;100.00;101012.91;105767;1257;59650;-62
2023/09/19 06:07:55;;;;;;;12.20;10.40;;;;;;;22.68;100.00;101014.84;105915;1257;59628;-62
2023/09/19 06:10:25;;;;;;;12.90;11.10;;;;;;;23.14;100.00;101016.55;105751;1257;72172;-64
2023/09/19 06:12:53;;;;;;;14.60;10.80;;;;;;;23.78;100.00;101010.45;105996;1253;66772;-64
2023/09/19 06:15:23;;;;;;;15.10;11.10;;;;;;;24.60;100.00;101007.04;105715;1253;72697;-61
2023/09/19 06:17:55;;;;;;;14.30;11.10;;;;;;;25.25;100.00;101008.00;105563;1257;60568;-61
2023/09/19 06:20:25;;;;;;;14.30;10.80;;;;;;;25.82;100.00;101005.66;105514;1255;60276;-61
2023/09/19 06:22:53;;;;;;;12.80;9.90;;;;;;;26.38;99.58;101008.29;105669;1255;75136;-62
2023/09/19 06:25:22;;;;;;;14.50;10.60;;;;;;;26.79;92.07;101008.45;105629;1253;67280;-62
2023/09/19 06:27:55;;;;;;;13.90;11.00;;;;;;;27.36;86.87;101003.28;105565;1258;71169;-62
2023/09/19 06:30:24;;;;;;;13.90;11.30;;;;;;;27.96;76.28;100998.65;105544;1258;61067;-63
2023/09/19 06:32:57;;;;;;;15.30;10.40;;;;;;;28.50;71.03;100999.11;105523;1253;60825;-63
2023/09/19 06:35:28;;;;;;;12.70;10.50;;;;;;;29.08;61.67;100999.85;105516;1253;72626;-62
2023/09/19 06:37:57;;;;;;;14.50;11.30;;;;;;;29.39;56.60;100993.71;105760;1259;65739;-65
2023/09/19 06:40:28;;;;;;;14.40;12.10;;;;;;;29.71;54.67;100998.80;105516;1255;71437;-64
2023/09/19 06:42:56;;;;;;;13.70;10.40;;;;;;;29.97;50.22;100995.69;105459;1254;60544;-61
2023/09/19 06:45:26;;;;;;;11.80;10.40;;;;;;;30.16;48.16;100996.33;105232;1253;60455;-62
2023/09/19 06:47:57;;;;;;;15.90;10.40;;;;;;;30.34;46.41;100998.60;105490;1253;73977;-63
2023/09/19 06:50:27;;;;;;;12.70;9.80;;;;;;;30.57;46.30;101001.82;105397;1256;67053;-63
2023/09/19 06:52:57;;;;;;;11.60;9.80;;;;;;;30.92;44.45;101001.73;105279;1258;71425;-61
2023/09/19 06:55:27;;;;;;;15.00;10.60;;;;;;;31.35;43.49;101002.04;105279;1256;60549;-61
2023/09/19 06:57:57;;;;;;;12.70;8.60;;;;;;;31.79;41.43;100998.84;105833;1254;59751;-63
2023/09/19 07:00:25;;;;;;;12.60;9.60;;;;;;;32.20;39.92;100993.89;105334;1257;74399;-62
2023/09/19 07:03:00;;;;;;;16.50;9.40;;;;;;;32.60;39.01;100993.19;105359;1255;61176;-62
2023/09/19 07:05:30;;;;;;;11.60;9.10;;;;;;;33.12;37.52;100992.61;105299;1253;63827;-62
2023/09/19 07:08:01;;;;;;;9.60;8.60;;;;;;;33.42;36.48;100992.27;105756;1257;60344;-64
2023/09/19 07:10:30;;;;;;;11.30;9.20;;;;;;;33.64;35.37;100994.55;105507;1253;60466;-62
2023/09/19 07:12:58;;;;;;;13.10;9.30;;;;;;;33.69;34.38;100994.20;105464;1254;63690;-62
2023/09/19 07:15:26;;;;;;;11.00;9.40;;;;;;;33.59;33.75;100996.12;105405;1254;60428;-62
2023/09/19 07:17:55;;;;;;;14.70;9.60;;;;;;;33.51;33.60;100992.45;105821;1253;63815;-64
2023/09/19 07:20:28;;;;;;;18.30;9.20;;;;;;;33.49;33.90;100988.66;104985;1257;60482;-61
2023/09/19 07:22:59;;;;;;;12.50;8.70;;;;;;;33.66;33.75;100982.68;105380;1258;60743;-61
2023/09/19 07:26:00;;;;;;;10.20;8.70;;;;;;;33.84;32.63;100979.11;105365;1257;64959;-62
2023/09/19 07:28:30;;;;;;;10.50;9.00;;;;;;;34.10;32.62;100977.27;105346;1257;60372;-62
2023/09/19 07:31:03;;;;;;;11.30;9.30;;;;;;;34.30;31.53;100974.23;105200;1255;64728;-61
2023/09/19 07:33:31;;;;;;;11.50;8.50;;;;;;;34.47;31.30;100973.00;105431;1253;60428;-63
2023/09/19 07:35:59;;;;;;;13.70;8.70;;;;;;;34.75;31.46;100972.88;104982;1259;60520;-62
2023/09/19 07:38:28;;;;;;;9.70;8.70;;;;;;;35.15;30.39;100971.74;105469;1258;63862;-61
2023/09/19 07:41:05;;;;;;;8.40;7.40;;;;;;;35.40;29.43;100968.87;105460;1257;60359;-62
2023/09/19 07:43:33;;;;;;;10.40;7.40;;;;;;;35.55;29.26;100965.05;105615;1254;64388;-63
2023/09/19 07:46:06;;;;;;;9.30;7.40;;;;;;;35.72;29.09;100962.39;105794;1257;60483;-61
2023/09/19 07:48:36;;;;;;;7.50;6.20;;;;;;;35.80;28.57;100963.45;105634;1253;60446;-59
2023/09/19 07:51:07;;;;;;;6.70;5.70;;;;;;;35.99;27.63;100959.89;105600;1255;65029;-61
2023/09/19 07:53:36;;;;;;;8.10;6.10;;;;;;;36.29;26.42;100957.05;105374;1253;60357;-65
2023/09/19 07:56:05;;;;;;;9.90;7.70;;;;;;;36.58;26.19;100951.77;105304;1253;62497;-63
2023/09/19 07:58:33;;;;;;;9.10;7.20;;;;;;;36.74;26.34;100951.14;105381;1253;60514;-64
2023/09/19 08:01:09;;;;;;;10.00;6.80;;;;;;;36.64;26.58;100949.39;105609;1253;60348;-63
2023/09/19 08:03:40;;;;;;;8.20;6.50;;;;;;;36.61;26.71;100948.29;105764;1255;65305;-62
2023/09/19 08:06:09;;;;;;;9.70;6.80;;;;;;;36.63;26.35;100947.79;105960;1253;60339;-62
2023/09/19 08:08:37;;;;;;;6.80;5.10;;;;;;;36.55;26.11;100947.73;105622;1253;66676;-63
2023/09/19 08:11:12;;;;;;;5.20;4.40;;;;;;;36.45;24.86;100944.54;105573;1253;60505;-65
2023/09/19 08:13:43;;;;;;;6.40;5.20;;;;;;;36.40;24.42;100939.31;105447;1253;60375;-64
2023/09/19 08:16:11;;;;;;;6.10;5.00;;;;;;;36.26;24.64;100943.84;105391;1253;63734;-63
2023/09/19 08:18:41;;;;;;;4.70;4.20;;;;;;;36.05;24.68;100943.90;105549;1254;60991;-63
2023/09/19 08:21:11;;;;;;;5.60;4.40;;;;;;;36.02;24.64;100941.00;105590;1254;66341;-65
2023/09/19 08:23:42;;;;;;;5.10;4.00;;;;;;;36.10;24.21;100935.92;105616;1258;60486;-63
2023/09/19 08:26:09;;;;;;;5.30;3.90;;;;;;;36.12;23.60;100931.77;105772;1257;60406;-61
2023/09/19 08:28:40;;;;;;;5.20;4.10;;;;;;;36.03;23.30;100930.86;105775;1257;64897;-61
2023/09/19 08:31:08;;;;;;;5.10;3.70;;;;;;;35.77;23.21;100933.35;105710;1252;60557;-65
2023/09/19 08:33:37;;;;;;;5.40;4.30;;;;;;;35.43;23.70;100929.79;105568;1254;64335;-63
2023/09/19 08:36:06;;;;;;;5.80;3.80;;;;;;;35.45;24.58;100928.46;105717;1253;60577;-64
2023/09/19 08:38:35;;;;;;;4.80;4.10;;;;;;;35.73;23.91;100928.33;105684;1253;60353;-63
2023/09/19 08:41:07;;;;;;;7.80;4.00;;;;;;;35.63;23.30;100923.98;105970;1253;64950;-64
2023/09/19 08:43:35;;;;;;;5.50;3.60;;;;;;;35.42;23.05;100921.06;105749;1253;61158;-64
2023/09/19 08:46:21;;;;;;;5.60;3.70;;;;;;;35.38;23.37;100917.68;105698;1257;63869;-64
2023/09/19 08:49:32;;;;;;;4.70;3.70;;;;;;;35.40;23.03;100917.44;105664;1257;60510;-64
2023/09/19 08:52:33;;;;;;;3.40;2.80;;;;;;;35.06;22.74;100916.47;106058;1253;60467;-64
2023/09/19 08:55:04;;;;;;;4.80;3.40;;;;;;;34.77;22.95;100910.98;105668;1257;65287;-66
2023/09/19 08:57:35;;;;;;;4.50;3.50;;;;;;;34.69;22.60;100909.81;105798;1253;60514;-65
2023/09/19 09:00:09;;;;;;;5.40;3.80;;;;;;;34.57;22.94;100908.55;105516;1253;63920;-65
2023/09/19 09:02:41;;;;;;;8.00;4.00;;;;;;;34.36;23.14;100905.08;105429;1259;60507;-64
2023/09/19 09:05:09;;;;;;;5.70;4.00;;;;;;;34.21;23.73;100901.17;105322;1254;60340;-65
2023/09/19 09:07:37;;;;;;;4.40;3.70;;;;;;;34.23;24.38;100903.11;105254;1253;63674;-64
2023/09/19 09:10:06;;;;;;;4.10;3.20;;;;;;;34.33;23.84;100897.85;105250;1256;60401;-64
2023/09/19 09:12:36;;;;;;;5.20;3.70;;;;;;;34.42;23.03;100894.84;105232;1259;73487;-61
2023/09/19 09:15:04;;;;;;;4.00;3.30;;;;;;;34.46;23.14;100891.26;105205;1257;60537;-63
2023/09/19 09:17:32;;;;;;;7.20;3.40;;;;;;;34.51;23.20;100888.59;105299;1260;60403;-63
2023/09/19 09:20:00;;;;;;;6.30;4.00;;;;;;;34.25;22.89;100886.79;105674;1253;66923;-63
2023/09/19 09:22:28;;;;;;;5.00;3.60;;;;;;;33.75;22.60;100885.86;105656;1254;60437;-61
2023/09/19 09:24:58;;;;;;;5.00;3.40;;;;;;;33.33;23.15;100882.53;105606;1257;62508;-61
2023/09/19 09:27:25;;;;;;;5.10;3.60;;;;;;;33.20;23.25;100884.67;105777;1253;60367;-62
2023/09/19 09:29:56;;;;;;;6.10;4.20;;;;;;;33.11;23.61;100882.14;105912;1253;60457;-64
2023/09/19 09:32:25;;;;;;;;;;;;;;;33.25;24.26;100880.95;105718;1254;77183;-63
2023/09/19 09:34:57;;;;;;;6.90;5.10;;;;;;;33.41;24.27;100877.96;105601;1253;60486;-62
2023/09/19 09:37:29;;;;;;;4.30;3.80;;;;;;;33.52;24.08;100870.09;105463;1253;66705;-64
2023/09/19 09:40:19;;;;;;;6.40;4.70;;;;;;;33.68;24.02;100868.49;105483;1256;60598;-60
2023/09/19 09:42:47;;;;;;;6.40;4.20;;;;;;;34.04;24.02;100866.83;105575;1253;60541;-60
2023/09/19 09:45:28;;;;;;;4.50;3.60;;;;;;;34.17;23.26;100868.57;105735;1253;67670;-62
2023/09/19 09:47:56;;;;;;;5.70;4.50;;;;;;;34.16;23.39;100867.19;105374;1258;60427;-60
2023/09/19 09:53:31;;;;;;;5.70;4.50;;;;;;;34.01;23.89;100865.65;105618;1258;60509;-61
2023/09/19 09:56:09;;;;;;;4.40;3.40;;;;;;;34.08;24.11;100864.69;105336;1253;60500;-60
2023/09/19 09:58:49;;;;;;;5.90;4.40;;;;;;;34.31;23.76;100863.57;105634;1253;66782;-62
2023/09/19 10:01:17;;;;;;;6.40;4.20;;;;;;;34.52;23.64;100860.38;105639;1253;60491;-61
2023/09/19 10:03:51;;;;;;;5.60;4.30;;;;;;;34.54;23.16;100858.45;105626;1255;65177;-62
2023/09/19 10:06:25;;;;;;;5.00;3.80;;;;;;;34.61;23.37;100857.38;105380;1256;60346;-63
2023/09/19 10:09:13;;;;;;;4.80;3.60;;;;;;;34.69;23.52;100853.52;105612;1253;60458;-61
2023/09/19 10:11:43;;;;;;;5.40;3.90;;;;;;;34.86;23.77;100844.61;105363;1253;66360;-60
2023/09/19 10:14:12;;;;;;;5.70;4.20;;;;;;;35.08;23.83;100841.98;105711;1253;60544;-62
2023/09/19 10:16:46;;;;;;;6.10;4.00;;;;;;;35.10;23.09;100838.13;105419;1253;66073;-62
2023/09/19 10:19:24;;;;;;;5.70;4.40;;;;;;;34.84;23.13;100836.09;105306;1258;61368;-63
2023/09/19 10:21:55;;;;;;;5.20;4.00;;;;;;;34.68;23.07;100835.60;105449;1253;60372;-63
2023/09/19 10:24:26;;;;;;;6.00;4.10;;;;;;;34.70;23.23;100833.89;105669;1260;65606;-61
2023/09/19 10:26:55;;;;;;;5.00;3.90;;;;;;;34.95;23.96;100826.11;105672;1253;60494;-61
2023/09/19 10:29:22;;;;;;;4.80;4.20;;;;;;;35.15;24.17;100824.49;105753;1254;65284;-66
2023/09/19 10:31:51;;;;;;;4.70;4.00;;;;;;;35.19;23.36;100818.42;105636;1258;60935;-60
2023/09/19 10:34:19;;;;;;;5.70;3.90;;;;;;;35.07;23.26;100816.10;105379;1253;60509;-61
2023/09/19 10:36:47;;;;;;;7.20;4.60;;;;;;;35.01;22.98;100813.05;105553;1255;63723;-60
2023/09/19 10:39:18;;;;;;;5.40;3.90;;;;;;;34.91;23.38;100813.59;105797;1258;60245;-65
2023/09/19 10:41:53;;;;;;;6.10;4.30;;;;;;;34.74;23.74;100812.14;105570;1253;63786;-61
2023/09/19 10:44:25;;;;;;;5.00;3.60;;;;;;;34.62;23.46;100812.93;105355;1253;60538;-61
2023/09/19 10:46:53;;;;;;;4.80;3.80;;;;;;;34.37;23.02;100811.54;105474;1258;60491;-64
2023/09/19 10:49:22;;;;;;;5.60;3.70;;;;;;;34.14;24.07;100806.96;105499;1253;65641;-60
2023/09/19 10:51:54;;;;;;;14.70;4.90;;;;;;;34.15;24.40;100803.74;105660;1254;60343;-62
2023/09/19 10:54:26;;;;;;;5.70;4.50;;;;;;;34.31;24.19;100803.66;105484;1253;66195;-62
2023/09/19 10:56:54;;;;;;;5.60;4.20;;;;;;;34.29;23.87;100799.56;105501;1258;60453;-64
2023/09/19 10:59:24;;;;;;;5.20;4.30;;;;;;;33.95;23.88;100799.27;105438;1258;59273;-63
2023/09/19 11:01:53;;;;;;;4.80;4.20;;;;;;;33.59;24.78;100797.27;105842;1256;66276;-62
2023/09/19 11:04:24;;;;;;;4.70;3.70;;;;;;;33.25;24.36;100794.73;106264;1257;60372;-64
2023/09/19 11:07:11;;;;;;;7.60;4.80;;;;;;;32.99;24.48;100789.79;105840;1253;63789;-62
2023/09/19 11:09:58;;;;;;;5.00;4.50;;;;;;;33.04;24.93;100780.91;105809;1253;60558;-63
2023/09/19 11:15:12;;;;;;;7.40;4.60;;;;;;;33.14;25.58;100769.74;105806;1257;67412;-61
2023/09/19 11:17:41;;;;;;;6.10;4.30;;;;;;;33.26;25.63;100766.30;105390;1258;60524;-64
2023/09/19 11:22:52;;;;;;;5.60;4.30;;;;;;;33.50;24.72;100759.80;105652;1258;60509;-62
2023/09/19 11:25:39;;;;;;;8.60;4.90;;;;;;;33.53;24.65;100758.76;105675;1257;60490;-63
2023/09/19 11:28:16;;;;;;;5.10;4.20;;;;;;;33.58;25.40;100763.06;105821;1253;66175;-62
2023/09/19 11:30:45;;;;;;;6.10;4.90;;;;;;;33.57;25.34;100760.79;105643;1255;60576;-62
2023/09/19 11:33:28;;;;;;;6.30;4.50;;;;;;;33.54;25.09;100756.95;105988;1253;62513;-64
2023/09/19 11:36:02;;;;;;;4.40;3.70;;;;;;;33.56;24.93;100751.31;105381;1258;60537;-62
2023/09/19 11:38:47;;;;;;;4.70;4.20;;;;;;;33.54;24.43;100745.70;105532;1257;60320;-63
2023/09/19 11:41:21;;;;;;;5.20;4.50;;;;;;;33.52;24.75;100749.92;105565;1257;68650;-62